createdAt,value
2019-03-27T00:00:57.983Z,101167.97
2019-03-27T00:03:26.464Z,101169.28
2019-03-27T00:05:54.903Z,101167.14
2019-03-27T00:08:23.349Z,101169.28
2019-03-27T00:10:51.860Z,101174.46
2019-03-27T00:13:20.362Z,101169.95
2019-03-27T00:15:48.826Z,101168.34
2019-03-27T00:18:17.334Z,101176.23
2019-03-27T00:20:45.841Z,101176.23
2019-03-27T00:23:15.684Z,101174.46
2019-03-27T00:25:44.279Z,101182.43
2019-03-27T00:28:13.604Z,101183.74
2019-03-27T00:30:42.028Z,101183.74
2019-03-27T00:33:10.487Z,101178.67
2019-03-27T00:35:38.764Z,101184.50
2019-03-27T00:38:07.253Z,101181.12
2019-03-27T00:40:35.739Z,101181.12
2019-03-27T00:43:04.156Z,101181.31
2019-03-27T00:45:32.813Z,101173.42
2019-03-27T00:48:09.381Z,101186.12
2019-03-27T00:50:39.103Z,101186.19
2019-03-27T00:53:07.723Z,101185.81
2019-03-27T00:55:36.277Z,101186.30
2019-03-27T00:58:04.798Z,101189.02
2019-03-27T01:01:04.420Z,101187.70
2019-03-27T01:03:32.999Z,101192.20
2019-03-27T01:06:01.523Z,101186.01
2019-03-27T01:08:29.904Z,101183.49
2019-03-27T01:10:58.346Z,101190.52
2019-03-27T01:13:26.749Z,101191.45
2019-03-27T01:15:55.369Z,101202.16
2019-03-27T01:18:24.495Z,101203.95
2019-03-27T01:20:52.942Z,101202.72
2019-03-27T01:23:21.291Z,101198.96
2019-03-27T01:25:50.505Z,101203.47
2019-03-27T01:28:18.870Z,101208.53
2019-03-27T01:30:47.262Z,101216.41
2019-03-27T01:33:15.690Z,101216.83
2019-03-27T01:35:44.174Z,101221.81
2019-03-27T01:38:12.484Z,101222.38
2019-03-27T01:40:40.827Z,101218.51
2019-03-27T01:43:09.220Z,101228.00
2019-03-27T01:45:37.794Z,101222.55
2019-03-27T01:48:06.208Z,101225.73
2019-03-27T01:50:42.611Z,101229.85
2019-03-27T01:53:10.982Z,101236.05
2019-03-27T01:55:39.470Z,101230.41
2019-03-27T01:58:07.760Z,101218.78
2019-03-27T02:00:36.260Z,101224.11
2019-03-27T02:03:05.450Z,101221.10
2019-03-27T02:05:34.021Z,101222.59
2019-03-27T02:08:02.443Z,101226.64
2019-03-27T02:10:31.022Z,101227.76
2019-03-27T02:12:59.412Z,101228.49
2019-03-27T02:15:29.756Z,101228.67
2019-03-27T02:17:58.183Z,101226.13
2019-03-27T02:20:26.551Z,101231.85
2019-03-27T02:22:55.046Z,101233.72
2019-03-27T02:25:23.531Z,101237.73
2019-03-27T02:27:51.850Z,101236.59
2019-03-27T02:30:20.310Z,101239.40
2019-03-27T02:32:48.811Z,101245.31
2019-03-27T02:35:17.175Z,101240.79
2019-03-27T02:37:45.979Z,101241.80
2019-03-27T02:40:14.490Z,101241.48
2019-03-27T02:42:42.947Z,101242.97
2019-03-27T02:45:13.251Z,101246.70
2019-03-27T02:47:41.621Z,101253.81
2019-03-27T02:50:10.072Z,101257.86
2019-03-27T02:52:40.991Z,101256.99
2019-03-27T02:55:09.649Z,101256.23
2019-03-27T02:57:37.977Z,101259.41
2019-03-27T03:00:08.049Z,101268.14
2019-03-27T03:02:36.424Z,101263.34
2019-03-27T03:05:06.141Z,101265.77
2019-03-27T03:07:34.475Z,101270.25
2019-03-27T03:10:03.048Z,101269.87
2019-03-27T03:12:31.363Z,101277.53
2019-03-27T03:14:59.727Z,101270.77
2019-03-27T03:17:28.321Z,101274.86
2019-03-27T03:19:56.622Z,101271.09
2019-03-27T03:22:25.103Z,101276.52
2019-03-27T03:24:53.581Z,101272.30
2019-03-27T03:27:22.059Z,101273.30
2019-03-27T03:29:50.545Z,101281.33
2019-03-27T03:32:19.034Z,101284.50
2019-03-27T03:34:47.450Z,101284.67
2019-03-27T03:37:15.926Z,101287.08
2019-03-27T03:39:44.310Z,101287.41
2019-03-27T03:42:12.985Z,101292.36
2019-03-27T03:44:41.314Z,101293.36
2019-03-27T03:47:09.766Z,101286.97
2019-03-27T03:49:38.179Z,101290.08
2019-03-27T03:52:06.800Z,101295.38
2019-03-27T03:54:35.814Z,101303.25
2019-03-27T03:57:04.494Z,101295.16
2019-03-27T03:59:35.298Z,101294.02
2019-03-27T04:02:04.090Z,101297.28
2019-03-27T04:04:34.989Z,101300.89
2019-03-27T04:07:03.420Z,101298.88
2019-03-27T04:09:32.415Z,101300.52
2019-03-27T04:12:01.001Z,101299.84
2019-03-27T04:14:29.433Z,101304.37
2019-03-27T04:16:57.801Z,101310.64
2019-03-27T04:19:26.228Z,101308.95
2019-03-27T04:21:54.590Z,101305.17
2019-03-27T04:24:23.891Z,101309.65
2019-03-27T04:26:52.362Z,101309.42
2019-03-27T04:29:21.603Z,101308.81
2019-03-27T04:31:49.984Z,101314.49
2019-03-27T04:34:18.280Z,101311.59
2019-03-27T04:36:47.056Z,101315.96
2019-03-27T04:39:15.460Z,101320.52
2019-03-27T04:41:44.032Z,101317.52
2019-03-27T04:44:13.132Z,101318.89
2019-03-27T04:46:43.295Z,101323.45
2019-03-27T04:49:11.819Z,101322.59
2019-03-27T04:51:40.298Z,101318.28
2019-03-27T04:54:09.106Z,101325.15
2019-03-27T04:56:37.649Z,101320.98
2019-03-27T04:59:05.929Z,101333.31
2019-03-27T05:01:35.158Z,101332.31
2019-03-27T05:04:04.915Z,101330.44
2019-03-27T05:06:35.017Z,101336.70
2019-03-27T05:09:04.417Z,101340.30
2019-03-27T05:11:32.921Z,101336.67
2019-03-27T05:14:02.692Z,101334.60
2019-03-27T05:16:31.098Z,101342.86
2019-03-27T05:18:59.458Z,101340.86
2019-03-27T05:21:27.973Z,101336.22
2019-03-27T05:23:56.411Z,101340.14
2019-03-27T05:26:24.838Z,101345.55
2019-03-27T05:28:59.998Z,101345.55
2019-03-27T05:31:28.383Z,101355.34
2019-03-27T05:33:56.944Z,101360.57
2019-03-27T05:36:25.347Z,101359.09
2019-03-27T05:38:54.612Z,101360.48
2019-03-27T05:41:22.927Z,101367.66
2019-03-27T05:43:52.317Z,101367.41
2019-03-27T05:46:20.737Z,101366.97
2019-03-27T05:48:49.202Z,101369.05
2019-03-27T05:51:17.519Z,101378.05
2019-03-27T05:53:46.387Z,101381.98
2019-03-27T05:56:14.683Z,101385.82
2019-03-27T05:58:43.333Z,101389.54
2019-03-27T06:01:11.624Z,101395.24
2019-03-27T06:03:40.092Z,101395.86
2019-03-27T06:06:08.596Z,101394.16
2019-03-27T06:08:37.077Z,101395.48
2019-03-27T06:11:05.785Z,101394.02
2019-03-27T06:13:34.260Z,101407.63
2019-03-27T06:16:03.629Z,101402.33
2019-03-27T06:18:32.124Z,101404.41
2019-03-27T06:21:00.403Z,101411.87
2019-03-27T06:23:28.791Z,101410.34
2019-03-27T06:25:57.196Z,101408.11
2019-03-27T06:28:26.128Z,101412.50
2019-03-27T06:30:54.564Z,101417.96
2019-03-27T06:33:22.941Z,101424.36
2019-03-27T06:35:51.370Z,101417.75
2019-03-27T06:38:19.826Z,101421.42
2019-03-27T06:40:48.270Z,101419.34
2019-03-27T06:43:16.928Z,101425.11
2019-03-27T06:45:48.633Z,101427.73
2019-03-27T06:48:26.213Z,101433.97
2019-03-27T06:50:51.162Z,101432.45
2019-03-27T06:53:20.318Z,101438.02
2019-03-27T06:55:49.695Z,101432.89
2019-03-27T06:58:18.176Z,101436.13
2019-03-27T07:00:46.791Z,101444.53
2019-03-27T07:03:15.170Z,101445.51
2019-03-27T07:05:43.686Z,101448.57
2019-03-27T07:08:11.967Z,101447.41
2019-03-27T07:10:40.331Z,101445.76
2019-03-27T07:13:08.709Z,101453.75
2019-03-27T07:15:37.159Z,101453.13
2019-03-27T07:18:05.567Z,101450.63
2019-03-27T07:20:34.023Z,101449.66
2019-03-27T07:23:02.449Z,101458.62
2019-03-27T07:25:30.827Z,101463.09
2019-03-27T07:27:59.214Z,101471.38
2019-03-27T07:30:27.752Z,101467.96
2019-03-27T07:33:02.703Z,101474.94
2019-03-27T07:35:31.160Z,101473.21
2019-03-27T07:37:59.553Z,101483.30
2019-03-27T07:40:28.134Z,101481.53
2019-03-27T07:42:56.464Z,101480.73
2019-03-27T07:45:25.000Z,101482.65
2019-03-27T07:47:53.300Z,101479.50
2019-03-27T07:50:22.378Z,101480.83
2019-03-27T07:52:50.718Z,101473.02
2019-03-27T07:55:20.098Z,101471.34
2019-03-27T07:57:48.518Z,101471.36
2019-03-27T08:00:17.644Z,101462.26
2019-03-27T08:02:45.953Z,101462.38
2019-03-27T08:05:14.513Z,101463.88
2019-03-27T08:07:43.027Z,101479.87
2019-03-27T08:10:11.908Z,101478.92
2019-03-27T08:12:41.173Z,101480.98
2019-03-27T08:15:10.213Z,101468.83
2019-03-27T08:17:38.863Z,101472.40
2019-03-27T08:20:07.805Z,101474.56
2019-03-27T08:22:36.243Z,101479.45
2019-03-27T08:25:05.443Z,101487.52
2019-03-27T08:27:33.868Z,101483.08
2019-03-27T08:30:02.601Z,101486.72
2019-03-27T08:32:31.096Z,101490.87
2019-03-27T08:35:11.610Z,101489.13
2019-03-27T08:37:40.031Z,101489.62
2019-03-27T08:40:10.375Z,101487.70
2019-03-27T08:42:39.020Z,101493.90
2019-03-27T08:45:08.545Z,101493.02
2019-03-27T08:47:37.090Z,101489.39
2019-03-27T08:50:06.103Z,101495.38
2019-03-27T08:52:34.545Z,101493.81
2019-03-27T08:55:03.255Z,101499.23
2019-03-27T08:57:31.745Z,101489.56
2019-03-27T09:00:00.373Z,101484.13
2019-03-27T09:02:30.535Z,101487.01
2019-03-27T09:04:58.989Z,101496.53
2019-03-27T09:07:27.553Z,101491.00
2019-03-27T09:09:56.044Z,101486.03
2019-03-27T09:12:24.758Z,101494.80
2019-03-27T09:14:53.287Z,101499.66
2019-03-27T09:17:21.945Z,101493.20
2019-03-27T09:19:50.419Z,101493.27
2019-03-27T09:22:18.847Z,101498.00
2019-03-27T09:24:47.289Z,101495.02
2019-03-27T09:27:15.753Z,101483.05
2019-03-27T09:29:44.115Z,101496.69
2019-03-27T09:32:12.785Z,101490.84
2019-03-27T09:34:41.319Z,101499.71
2019-03-27T09:37:21.848Z,101496.20
2019-03-27T09:39:50.193Z,101495.02
2019-03-27T09:42:18.620Z,101493.85
2019-03-27T09:44:47.070Z,101493.11
2019-03-27T09:47:15.577Z,101497.38
2019-03-27T09:49:49.775Z,101499.73
2019-03-27T09:52:14.275Z,101491.78
2019-03-27T09:54:42.784Z,101493.27
2019-03-27T09:57:11.213Z,101490.11
2019-03-27T09:59:39.696Z,101497.89
2019-03-27T10:02:08.268Z,101495.97
2019-03-27T10:04:36.837Z,101513.05
2019-03-27T10:07:05.449Z,101481.15
2019-03-27T10:09:34.086Z,101495.20
2019-03-27T10:12:02.649Z,101496.35
2019-03-27T10:14:31.181Z,101501.35
2019-03-27T10:16:59.823Z,101496.98
2019-03-27T10:19:28.257Z,101514.50
2019-03-27T10:21:56.749Z,101512.45
2019-03-27T10:24:25.284Z,101504.69
2019-03-27T10:26:53.879Z,101497.02
2019-03-27T10:29:22.436Z,101503.57
2019-03-27T10:31:51.102Z,101501.05
2019-03-27T10:34:19.543Z,101505.00
2019-03-27T10:36:48.191Z,101499.13
2019-03-27T10:39:18.783Z,101489.09
2019-03-27T10:41:47.652Z,101499.36
2019-03-27T10:44:17.997Z,101501.22
2019-03-27T10:46:46.499Z,101489.00
2019-03-27T10:49:14.906Z,101498.80
2019-03-27T10:51:43.310Z,101491.95
2019-03-27T10:54:12.734Z,101493.48
2019-03-27T10:56:41.330Z,101490.25
2019-03-27T10:59:09.719Z,101497.61
2019-03-27T11:01:38.218Z,101496.81
2019-03-27T11:04:06.812Z,101486.16
2019-03-27T11:06:35.141Z,101485.05
2019-03-27T11:09:07.012Z,101481.06
2019-03-27T11:11:35.880Z,101474.67
2019-03-27T11:14:04.959Z,101481.41
2019-03-27T11:16:33.519Z,101483.04
2019-03-27T11:19:02.181Z,101482.18
2019-03-27T11:21:30.614Z,101487.62
2019-03-27T11:23:59.080Z,101482.55
2019-03-27T11:26:27.552Z,101477.21
2019-03-27T11:28:56.771Z,101477.36
2019-03-27T11:31:25.269Z,101475.26
2019-03-27T11:33:54.296Z,101473.49
2019-03-27T11:36:23.425Z,101479.00
2019-03-27T11:38:51.966Z,101474.52
2019-03-27T11:41:20.490Z,101468.72
2019-03-27T11:43:54.814Z,101470.66
2019-03-27T11:46:19.281Z,101468.77
2019-03-27T11:48:47.676Z,101464.06
2019-03-27T11:51:16.243Z,101466.95
2019-03-27T11:53:45.048Z,101459.38
2019-03-27T11:56:13.488Z,101459.38
2019-03-27T11:58:42.255Z,101464.06
2019-03-27T12:01:10.542Z,101459.87
2019-03-27T12:03:38.920Z,101462.38
2019-03-27T12:06:07.432Z,101462.16
2019-03-27T12:08:35.802Z,101462.16
2019-03-27T12:11:05.422Z,101462.84
2019-03-27T12:13:33.900Z,101462.84
2019-03-27T12:16:02.430Z,101466.05
2019-03-27T12:18:32.254Z,101465.45
2019-03-27T12:21:01.115Z,101465.45
2019-03-27T12:23:29.577Z,101450.64
2019-03-27T12:25:58.135Z,101384.42
2019-03-27T12:28:26.604Z,101444.11
2019-03-27T12:30:55.089Z,101441.36
2019-03-27T12:33:23.645Z,101441.36
2019-03-27T12:35:52.050Z,101433.02
2019-03-27T12:38:20.473Z,101439.88
2019-03-27T12:40:48.803Z,101445.30
2019-03-27T12:43:17.410Z,101445.30
2019-03-27T12:45:45.892Z,101440.81
2019-03-27T12:48:14.418Z,101440.81
2019-03-27T12:50:44.556Z,101442.56
2019-03-27T12:53:13.082Z,101429.91
2019-03-27T12:55:41.632Z,101429.91
2019-03-27T12:58:11.877Z,101438.05
2019-03-27T13:00:41.292Z,101443.74
2019-03-27T13:03:09.839Z,101431.08
2019-03-27T13:05:38.286Z,101446.03
2019-03-27T13:08:06.798Z,101449.55
2019-03-27T13:10:35.392Z,101449.55
2019-03-27T13:13:03.911Z,101455.76
2019-03-27T13:15:33.596Z,101446.20
2019-03-27T13:18:02.271Z,101445.34
2019-03-27T13:20:30.792Z,101455.66
2019-03-27T13:22:59.260Z,101444.14
2019-03-27T13:25:28.469Z,101444.14
2019-03-27T13:27:56.810Z,101447.00
2019-03-27T13:30:25.300Z,101447.00
2019-03-27T13:32:53.689Z,101447.47
2019-03-27T13:35:22.874Z,101444.23
2019-03-27T13:37:51.333Z,101450.63
2019-03-27T13:40:20.153Z,101450.63
2019-03-27T13:42:49.042Z,101438.75
2019-03-27T13:45:18.023Z,101438.75
2019-03-27T13:47:46.570Z,101440.59
2019-03-27T13:50:17.411Z,101444.08
2019-03-27T13:52:45.763Z,101441.60
2019-03-27T13:55:14.468Z,101431.92
2019-03-27T13:57:43.423Z,101431.92
2019-03-27T14:00:13.714Z,101437.44
2019-03-27T14:02:42.509Z,101431.48
2019-03-27T14:05:11.785Z,101438.14
2019-03-27T14:07:40.324Z,101436.33
2019-03-27T14:10:09.301Z,101437.03
2019-03-27T14:12:37.864Z,101430.60
2019-03-27T14:15:07.808Z,101439.29
2019-03-27T14:17:42.687Z,101439.77
2019-03-27T14:20:11.709Z,101437.03
2019-03-27T14:22:40.259Z,101432.58
2019-03-27T14:25:10.949Z,101434.50
2019-03-27T14:27:39.357Z,101434.41
2019-03-27T14:30:09.245Z,101434.89
2019-03-27T14:32:37.841Z,101433.37
2019-03-27T14:35:06.540Z,101429.85
2019-03-27T14:37:35.112Z,101435.64
2019-03-27T14:40:04.334Z,101431.76
2019-03-27T14:42:32.745Z,101432.50
2019-03-27T14:45:01.348Z,101439.83
2019-03-27T14:47:29.863Z,101439.48
2019-03-27T14:49:58.252Z,101434.75
2019-03-27T14:52:26.649Z,101434.75
2019-03-27T14:54:55.148Z,101441.70
2019-03-27T14:57:23.482Z,101449.50
2019-03-27T14:59:51.923Z,101449.50
2019-03-27T15:02:20.416Z,101445.42
2019-03-27T15:04:48.852Z,101453.09
2019-03-27T15:07:17.350Z,101458.80
2019-03-27T15:09:45.744Z,101453.59
2019-03-27T15:12:14.229Z,101453.59
2019-03-27T15:14:42.619Z,101449.27
2019-03-27T15:17:11.036Z,101453.63
2019-03-27T15:19:39.534Z,101453.63
2019-03-27T15:22:21.463Z,101455.62
2019-03-27T15:24:38.604Z,101455.47
2019-03-27T15:27:06.950Z,101448.67
2019-03-27T15:29:35.280Z,101455.02
2019-03-27T15:32:03.860Z,101458.95
2019-03-27T15:34:32.334Z,101457.66
2019-03-27T15:37:00.837Z,101455.32
2019-03-27T15:39:29.147Z,101456.44
2019-03-27T15:41:58.366Z,101457.92
2019-03-27T15:44:27.472Z,101457.92
2019-03-27T15:46:55.869Z,101462.47
2019-03-27T15:49:24.298Z,101455.92
2019-03-27T15:51:53.093Z,101459.98
2019-03-27T15:54:23.462Z,101451.30
2019-03-27T15:56:51.940Z,101451.80
2019-03-27T15:59:20.520Z,101451.80
2019-03-27T16:01:49.121Z,101452.06
2019-03-27T16:04:17.652Z,101460.28
2019-03-27T16:06:46.127Z,101460.28
2019-03-27T16:09:15.817Z,101460.14
2019-03-27T16:11:44.386Z,101465.82
2019-03-27T16:14:13.552Z,101468.13
2019-03-27T16:16:42.224Z,101460.63
2019-03-27T16:19:11.698Z,101460.63
2019-03-27T16:21:44.472Z,101468.95
2019-03-27T16:24:12.910Z,101470.16
2019-03-27T16:26:41.520Z,101470.16
2019-03-27T16:29:10.546Z,101468.83
2019-03-27T16:31:39.538Z,101465.22
2019-03-27T16:34:08.095Z,101461.36
2019-03-27T16:36:36.565Z,101466.90
2019-03-27T16:39:05.862Z,101475.52
2019-03-27T16:41:34.404Z,101469.27
2019-03-27T16:44:03.004Z,101469.52
2019-03-27T16:46:31.663Z,101465.52
2019-03-27T16:49:00.154Z,101471.03
2019-03-27T16:51:29.249Z,101468.15
2019-03-27T16:53:57.629Z,101467.22
2019-03-27T16:56:26.368Z,101470.20
2019-03-27T16:58:55.207Z,101477.66
2019-03-27T17:01:24.418Z,101471.50
2019-03-27T17:03:53.007Z,101471.34
2019-03-27T17:06:21.734Z,101481.94
2019-03-27T17:08:50.386Z,101485.80
2019-03-27T17:11:18.696Z,101483.37
2019-03-27T17:13:47.170Z,101486.41
2019-03-27T17:16:15.694Z,101488.95
2019-03-27T17:18:44.216Z,101481.72
2019-03-27T17:21:12.569Z,101489.30
2019-03-27T17:23:42.578Z,101493.77
2019-03-27T17:26:11.099Z,101491.25
2019-03-27T17:28:39.679Z,101491.61
2019-03-27T17:31:08.093Z,101501.23
2019-03-27T17:33:36.607Z,101501.61
2019-03-27T17:36:05.847Z,101501.80
2019-03-27T17:38:34.327Z,101508.89
2019-03-27T17:41:02.871Z,101510.98
2019-03-27T17:43:31.341Z,101513.50
2019-03-27T17:46:00.834Z,101516.60
2019-03-27T17:48:29.281Z,101515.28
2019-03-27T17:50:58.225Z,101525.50
2019-03-27T17:53:31.932Z,101527.14
2019-03-27T17:55:56.980Z,101530.25
2019-03-27T17:58:25.524Z,101531.42
2019-03-27T18:00:57.146Z,101523.36
2019-03-27T18:03:25.626Z,101523.22
2019-03-27T18:05:54.168Z,101532.07
2019-03-27T18:08:22.773Z,101530.88
2019-03-27T18:10:51.304Z,101524.80
2019-03-27T18:13:19.786Z,101530.31
2019-03-27T18:15:48.285Z,101531.64
2019-03-27T18:18:16.824Z,101534.11
2019-03-27T18:20:45.227Z,101540.44
2019-03-27T18:23:14.488Z,101541.75
2019-03-27T18:25:42.936Z,101544.75
2019-03-27T18:28:11.412Z,101546.02
2019-03-27T18:30:40.598Z,101541.95
2019-03-27T18:33:09.096Z,101546.21
2019-03-27T18:35:37.523Z,101553.86
2019-03-27T18:38:06.095Z,101551.00
2019-03-27T18:40:34.514Z,101558.94
2019-03-27T18:43:03.624Z,101556.14
2019-03-27T18:45:31.937Z,101559.13
2019-03-27T18:48:00.451Z,101559.72
2019-03-27T18:50:28.911Z,101557.66
2019-03-27T18:52:57.263Z,101554.30
2019-03-27T18:55:27.130Z,101552.45
2019-03-27T18:58:00.302Z,101552.03
2019-03-27T19:00:27.833Z,101546.22
2019-03-27T19:02:56.336Z,101548.83
2019-03-27T19:05:24.933Z,101546.87
2019-03-27T19:07:53.433Z,101541.21
2019-03-27T19:10:22.312Z,101541.58
2019-03-27T19:12:51.014Z,101542.75
2019-03-27T19:15:21.279Z,101539.89
2019-03-27T19:17:49.940Z,101534.08
2019-03-27T19:20:18.455Z,101530.55
2019-03-27T19:22:46.807Z,101537.65
2019-03-27T19:25:15.307Z,101544.12
2019-03-27T19:27:43.755Z,101537.25
2019-03-27T19:30:12.855Z,101541.95
2019-03-27T19:32:41.256Z,101543.98
2019-03-27T19:35:09.900Z,101539.73
2019-03-27T19:37:38.347Z,101543.02
2019-03-27T19:40:07.408Z,101541.24
2019-03-27T19:42:36.620Z,101539.36
2019-03-27T19:45:06.266Z,101540.44
2019-03-27T19:47:34.681Z,101542.74
2019-03-27T19:50:03.540Z,101536.53
2019-03-27T19:52:32.165Z,101540.74
2019-03-27T19:55:00.804Z,101539.55
2019-03-27T19:57:29.399Z,101548.42
2019-03-27T19:59:57.908Z,101544.45
2019-03-27T20:02:26.354Z,101550.95
2019-03-27T20:04:56.870Z,101550.38
2019-03-27T20:07:35.329Z,101554.66
2019-03-27T20:09:55.871Z,101557.77
2019-03-27T20:12:24.408Z,101554.74
2019-03-27T20:14:52.792Z,101554.50
2019-03-27T20:17:21.196Z,101555.08
2019-03-27T20:19:49.752Z,101553.76
2019-03-27T20:22:18.143Z,101553.23
2019-03-27T20:24:47.321Z,101554.59
2019-03-27T20:27:15.852Z,101555.45
2019-03-27T20:29:46.620Z,101561.31
2019-03-27T20:32:15.403Z,101552.80
2019-03-27T20:34:43.860Z,101560.15
2019-03-27T20:37:12.178Z,101556.41
2019-03-27T20:39:42.688Z,101550.59
2019-03-27T20:42:10.772Z,101555.50
2019-03-27T20:44:39.229Z,101556.66
2019-03-27T20:47:07.561Z,101563.56
2019-03-27T20:49:35.902Z,101558.19
2019-03-27T20:52:04.243Z,101560.99
2019-03-27T20:54:32.624Z,101553.33
2019-03-27T20:57:01.616Z,101556.05
2019-03-27T20:59:30.113Z,101559.59
2019-03-27T21:01:58.583Z,101561.45
2019-03-27T21:04:26.986Z,101558.40
2019-03-27T21:06:55.407Z,101555.59
2019-03-27T21:09:26.263Z,101559.76
2019-03-27T21:11:56.173Z,101549.36
2019-03-27T21:14:24.608Z,101547.92
2019-03-27T21:16:53.097Z,101548.87
2019-03-27T21:19:21.537Z,101549.41
2019-03-27T21:21:49.873Z,101550.09
2019-03-27T21:24:18.295Z,101552.37
2019-03-27T21:26:46.723Z,101546.05
2019-03-27T21:29:16.227Z,101553.39
2019-03-27T21:31:44.856Z,101549.46
2019-03-27T21:34:13.427Z,101551.95
2019-03-27T21:36:42.066Z,101549.88
2019-03-27T21:39:10.546Z,101551.64
2019-03-27T21:41:38.915Z,101549.22
2019-03-27T21:44:07.442Z,101553.69
2019-03-27T21:46:36.500Z,101551.91
2019-03-27T21:49:04.931Z,101551.41
2019-03-27T21:51:33.445Z,101548.11
2019-03-27T21:54:02.487Z,101550.16
2019-03-27T21:56:31.943Z,101553.17
2019-03-27T21:59:02.533Z,101558.46
2019-03-27T22:01:30.866Z,101555.66
2019-03-27T22:03:59.391Z,101549.11
2019-03-27T22:06:30.399Z,101559.34
2019-03-27T22:08:59.516Z,101556.08
2019-03-27T22:11:27.963Z,101554.97
2019-03-27T22:13:56.393Z,101545.52
2019-03-27T22:16:24.751Z,101545.55
2019-03-27T22:18:53.233Z,101548.03
2019-03-27T22:21:21.738Z,101549.19
2019-03-27T22:23:50.092Z,101544.98
2019-03-27T22:26:18.700Z,101543.08
2019-03-27T22:28:47.163Z,101540.60
2019-03-27T22:31:16.262Z,101545.36
2019-03-27T22:33:44.664Z,101541.97
2019-03-27T22:36:13.354Z,101535.73
2019-03-27T22:38:41.794Z,101537.06
2019-03-27T22:41:10.185Z,101541.39
2019-03-27T22:43:38.573Z,101544.41
2019-03-27T22:46:06.905Z,101537.89
2019-03-27T22:48:35.305Z,101540.44
2019-03-27T22:51:03.818Z,101540.07
2019-03-27T22:53:32.221Z,101540.70
2019-03-27T22:56:00.617Z,101550.08
2019-03-27T22:58:29.240Z,101549.78
2019-03-27T23:00:58.092Z,101547.72
2019-03-27T23:03:26.724Z,101546.07
2019-03-27T23:05:55.181Z,101544.75
2019-03-27T23:08:23.730Z,101547.44
2019-03-27T23:10:52.201Z,101541.16
2019-03-27T23:13:20.832Z,101539.05
2019-03-27T23:15:49.506Z,101538.89
2019-03-27T23:18:18.109Z,101538.56
2019-03-27T23:20:46.602Z,101534.30
2019-03-27T23:23:15.137Z,101529.61
2019-03-27T23:25:43.608Z,101530.06
2019-03-27T23:28:12.122Z,101536.73
2019-03-27T23:30:40.673Z,101544.17
2019-03-27T23:33:09.202Z,101536.98
2019-03-27T23:35:37.698Z,101535.42
2019-03-27T23:38:06.360Z,101526.42
2019-03-27T23:40:36.379Z,101529.19
2019-03-27T23:43:04.773Z,101531.87
2019-03-27T23:45:33.098Z,101528.78
2019-03-27T23:48:01.504Z,101538.69
2019-03-27T23:50:29.816Z,101534.14
2019-03-27T23:52:58.258Z,101536.50
2019-03-27T23:55:26.578Z,101534.56
2019-03-27T23:57:55.174Z,101530.06
